createdAt,value
2019-02-22T00:01:02.935Z,33.20
2019-02-22T00:05:55.929Z,30.23
2019-02-22T00:10:48.776Z,31.73
2019-02-22T00:15:41.746Z,33.17
2019-02-22T00:20:34.598Z,36.53
2019-02-22T00:25:27.531Z,32.30
2019-02-22T00:30:21.594Z,32.77
2019-02-22T00:35:14.683Z,33.10
2019-02-22T00:40:07.554Z,38.23
2019-02-22T00:45:00.463Z,28.03
2019-02-22T00:49:53.345Z,30.13
2019-02-22T00:54:46.226Z,28.50
2019-02-22T00:59:39.152Z,29.33
2019-02-22T01:04:32.064Z,28.77
2019-02-22T01:09:24.969Z,24.57
2019-02-22T01:14:17.841Z,26.03
2019-02-22T01:19:10.697Z,26.03
2019-02-22T01:24:03.690Z,26.37
2019-02-22T01:28:56.574Z,25.87
2019-02-22T01:33:49.432Z,24.87
2019-02-22T01:38:42.302Z,27.27
2019-02-22T01:43:35.145Z,25.57
2019-02-22T01:48:28.042Z,24.73
2019-02-22T01:53:20.926Z,27.17
2019-02-22T01:58:13.814Z,27.33
2019-02-22T02:03:06.662Z,27.60
2019-02-22T02:07:59.582Z,27.63
2019-02-22T02:12:52.435Z,28.53
2019-02-22T02:17:45.320Z,31.20
2019-02-22T02:22:38.179Z,29.13
2019-02-22T02:27:31.072Z,31.70
2019-02-22T02:32:23.924Z,29.93
2019-02-22T02:37:16.810Z,31.90
2019-02-22T02:42:09.688Z,35.40
2019-02-22T02:47:02.527Z,31.40
2019-02-22T02:51:55.398Z,31.30
2019-02-22T02:56:48.257Z,30.20
2019-02-22T03:01:41.146Z,28.40
2019-02-22T03:06:42.508Z,32.03
2019-02-22T03:11:35.363Z,29.77
2019-02-22T03:16:29.317Z,28.03
2019-02-22T03:21:22.201Z,26.60
2019-02-22T03:26:15.042Z,29.10
2019-02-22T03:31:07.939Z,30.80
2019-02-22T03:36:00.795Z,29.23
2019-02-22T03:40:53.662Z,27.93
2019-02-22T03:45:46.546Z,30.27
2019-02-22T03:50:39.799Z,29.57
2019-02-22T03:55:32.844Z,28.47
2019-02-22T04:00:25.715Z,29.27
2019-02-22T04:05:19.899Z,28.03
2019-02-22T04:10:13.052Z,29.50
2019-02-22T04:15:06.768Z,25.83
2019-02-22T04:19:59.595Z,27.13
2019-02-22T04:24:52.467Z,30.67
2019-02-22T04:29:45.360Z,28.23
2019-02-22T04:34:38.263Z,28.40
2019-02-22T04:39:31.128Z,26.27
2019-02-22T04:44:24.016Z,26.17
2019-02-22T04:49:16.880Z,27.97
2019-02-22T04:54:09.742Z,26.87
2019-02-22T04:59:02.612Z,27.13
2019-02-22T05:03:55.487Z,26.73
2019-02-22T05:08:48.418Z,26.37
2019-02-22T05:13:41.495Z,28.80
2019-02-22T05:18:34.506Z,27.40
2019-02-22T05:23:27.357Z,27.83
2019-02-22T05:28:20.264Z,25.80
2019-02-22T05:33:13.179Z,27.33
2019-02-22T05:38:06.066Z,27.53
2019-02-22T05:42:59.009Z,27.97
2019-02-22T05:47:52.011Z,26.40
2019-02-22T05:52:44.865Z,28.17
2019-02-22T05:57:37.753Z,29.57
2019-02-22T06:02:33.609Z,27.53
2019-02-22T06:07:25.545Z,28.90
2019-02-22T06:12:18.700Z,27.07
2019-02-22T06:17:14.780Z,29.13
2019-02-22T06:22:06.564Z,29.40
2019-02-22T06:26:59.430Z,29.10
2019-02-22T06:31:52.288Z,28.07
2019-02-22T06:36:45.162Z,30.93
2019-02-22T06:41:38.023Z,29.37
2019-02-22T06:46:30.943Z,30.77
2019-02-22T06:51:23.832Z,29.00
2019-02-22T06:56:16.697Z,31.33
2019-02-22T07:01:09.671Z,30.43
2019-02-22T07:06:02.572Z,30.10
2019-02-22T07:11:05.537Z,32.50
2019-02-22T07:15:58.376Z,33.80
2019-02-22T07:20:53.086Z,31.73
2019-02-22T07:25:45.961Z,33.93
2019-02-22T07:30:38.900Z,38.03
2019-02-22T07:35:32.037Z,34.13
2019-02-22T07:40:24.962Z,38.80
2019-02-22T07:45:17.828Z,40.67
2019-02-22T07:50:11.527Z,41.00
2019-02-22T07:55:05.493Z,43.33
2019-02-22T07:59:58.367Z,44.70
2019-02-22T08:04:51.255Z,42.80
2019-02-22T08:09:44.137Z,47.80
2019-02-22T08:14:37.090Z,49.50
2019-02-22T08:19:29.945Z,50.50
2019-02-22T08:24:25.967Z,48.37
2019-02-22T08:29:19.210Z,50.73
2019-02-22T08:34:12.103Z,49.53
2019-02-22T08:39:05.514Z,53.93
2019-02-22T08:43:58.434Z,53.00
2019-02-22T08:48:51.319Z,54.53
2019-02-22T08:53:44.733Z,53.97
2019-02-22T08:58:37.598Z,52.37
2019-02-22T09:03:30.483Z,54.27
2019-02-22T09:08:23.337Z,49.73
2019-02-22T09:13:16.202Z,55.60
2019-02-22T09:18:09.083Z,52.70
2019-02-22T09:23:01.969Z,52.93
2019-02-22T09:27:54.847Z,51.27
2019-02-22T09:32:47.713Z,49.07
2019-02-22T09:37:40.785Z,47.93
2019-02-22T09:42:33.699Z,46.63
2019-02-22T09:47:26.588Z,43.93
2019-02-22T09:52:19.617Z,46.47
2019-02-22T09:57:12.931Z,45.37
2019-02-22T10:02:05.912Z,46.03
2019-02-22T10:06:58.840Z,41.07
2019-02-22T10:11:51.773Z,38.33
2019-02-22T10:16:44.665Z,39.03
2019-02-22T10:21:37.554Z,37.87
2019-02-22T10:26:30.577Z,37.83
2019-02-22T10:31:23.450Z,33.93
2019-02-22T10:36:16.300Z,34.70
2019-02-22T10:41:09.176Z,35.93
2019-02-22T10:46:02.078Z,32.97
2019-02-22T10:50:55.900Z,29.83
2019-02-22T10:55:48.772Z,25.30
2019-02-22T11:00:41.784Z,28.73
2019-02-22T11:05:36.586Z,26.70
2019-02-22T11:10:29.602Z,24.97
2019-02-22T11:15:22.510Z,24.07
2019-02-22T11:20:15.408Z,25.40
2019-02-22T11:25:10.246Z,26.40
2019-02-22T11:30:03.738Z,27.20
2019-02-22T11:34:56.642Z,25.60
2019-02-22T11:39:49.560Z,22.10
2019-02-22T11:44:42.420Z,16.50
2019-02-22T11:49:35.314Z,17.67
2019-02-22T11:54:28.193Z,12.77
2019-02-22T11:59:21.074Z,11.60
2019-02-22T12:04:13.979Z,8.33
2019-02-22T12:09:06.830Z,10.63
2019-02-22T12:14:04.497Z,10.23
2019-02-22T12:18:57.396Z,11.70
2019-02-22T12:23:52.892Z,12.77
2019-02-22T12:28:45.319Z,12.13
2019-02-22T12:33:39.704Z,13.13
2019-02-22T12:38:32.893Z,12.53
2019-02-22T12:43:25.806Z,9.70
2019-02-22T12:48:21.437Z,9.17
2019-02-22T12:53:14.329Z,7.87
2019-02-22T12:58:07.205Z,6.27
2019-02-22T13:03:02.265Z,7.97
2019-02-22T13:07:55.578Z,12.77
2019-02-22T13:12:50.445Z,7.50
2019-02-22T13:17:43.444Z,7.00
2019-02-22T13:22:36.307Z,7.77
2019-02-22T13:27:29.573Z,7.73
2019-02-22T13:32:22.447Z,6.97
2019-02-22T13:37:15.324Z,4.70
2019-02-22T13:42:08.187Z,6.30
2019-02-22T13:47:05.991Z,8.10
2019-02-22T13:52:02.074Z,4.50
2019-02-22T13:56:55.008Z,4.67
2019-02-22T14:01:47.888Z,4.87
2019-02-22T14:06:40.890Z,5.53
2019-02-22T14:11:33.757Z,5.33
2019-02-22T14:16:26.626Z,4.43
2019-02-22T14:21:19.487Z,5.17
2019-02-22T14:26:12.496Z,6.17
2019-02-22T14:31:05.415Z,3.30
2019-02-22T14:35:58.279Z,5.90
2019-02-22T14:40:51.153Z,3.67
2019-02-22T14:45:49.331Z,7.33
2019-02-22T14:50:38.821Z,7.63
2019-02-22T14:55:31.711Z,4.87
2019-02-22T15:00:24.613Z,3.83
2019-02-22T15:05:17.594Z,5.50
2019-02-22T15:10:10.917Z,4.70
2019-02-22T15:15:06.071Z,4.63
2019-02-22T15:19:59.002Z,4.23
2019-02-22T15:24:53.607Z,4.33
2019-02-22T15:29:47.079Z,3.67
2019-02-22T15:34:40.178Z,5.17
2019-02-22T15:39:33.154Z,6.07
2019-02-22T15:44:25.992Z,4.30
2019-02-22T15:49:20.187Z,4.60
2019-02-22T15:54:13.118Z,4.40
2019-02-22T15:59:05.975Z,5.67
2019-02-22T16:04:32.080Z,6.07
2019-02-22T16:09:25.045Z,6.37
2019-02-22T16:14:17.895Z,5.43
2019-02-22T16:19:10.776Z,4.70
2019-02-22T16:24:03.772Z,6.07
2019-02-22T16:28:56.730Z,4.87
2019-02-22T16:33:49.629Z,5.97
2019-02-22T16:38:42.510Z,6.50
2019-02-22T16:43:35.448Z,5.03
2019-02-22T16:48:28.303Z,6.37
2019-02-22T16:53:21.175Z,6.93
2019-02-22T16:58:14.074Z,6.60
2019-02-22T17:03:06.944Z,8.27
2019-02-22T17:07:59.811Z,8.17
2019-02-22T17:12:52.663Z,6.23
2019-02-22T17:17:45.521Z,5.93
2019-02-22T17:22:38.396Z,9.00
2019-02-22T17:27:31.418Z,9.03
2019-02-22T17:32:24.291Z,8.90
2019-02-22T17:37:17.131Z,8.43
2019-02-22T17:42:10.112Z,9.00
2019-02-22T17:47:02.992Z,8.73
2019-02-22T17:51:55.894Z,8.47
2019-02-22T17:56:48.752Z,11.13
2019-02-22T18:01:41.774Z,9.27
2019-02-22T18:06:34.630Z,10.07
2019-02-22T18:11:27.582Z,9.70
2019-02-22T18:16:20.403Z,10.30
2019-02-22T18:21:13.282Z,12.47
2019-02-22T18:26:06.165Z,12.37
2019-02-22T18:30:59.483Z,12.87
2019-02-22T18:35:52.366Z,13.13
2019-02-22T18:40:45.216Z,13.33
2019-02-22T18:45:38.103Z,12.93
2019-02-22T18:50:31.069Z,12.13
2019-02-22T18:55:25.845Z,17.03
2019-02-22T19:00:19.712Z,16.13
2019-02-22T19:05:13.709Z,15.53
2019-02-22T19:10:08.596Z,13.93
2019-02-22T19:15:01.471Z,13.43
2019-02-22T19:19:54.324Z,16.77
2019-02-22T19:24:47.199Z,16.17
2019-02-22T19:29:40.904Z,16.83
2019-02-22T19:34:33.797Z,16.93
2019-02-22T19:39:26.653Z,16.43
2019-02-22T19:44:19.547Z,16.20
2019-02-22T19:49:12.437Z,17.93
2019-02-22T19:54:05.313Z,16.83
2019-02-22T19:58:58.208Z,16.13
2019-02-22T20:03:51.082Z,15.87
2019-02-22T20:08:43.955Z,14.53
2019-02-22T20:13:37.026Z,17.57
2019-02-22T20:18:29.903Z,17.60
2019-02-22T20:23:23.123Z,16.77
2019-02-22T20:28:15.993Z,16.40
2019-02-22T20:33:08.842Z,14.80
2019-02-22T20:38:01.722Z,15.10
2019-02-22T20:42:54.596Z,15.50
2019-02-22T20:47:47.609Z,15.57
2019-02-22T20:52:40.465Z,18.53
2019-02-22T20:57:34.839Z,13.93
2019-02-22T21:02:29.652Z,14.90
2019-02-22T21:07:22.530Z,15.17
2019-02-22T21:12:15.402Z,16.50
2019-02-22T21:17:08.345Z,14.70
2019-02-22T21:22:01.219Z,15.03
2019-02-22T21:26:54.076Z,17.37
2019-02-22T21:31:47.077Z,17.10
2019-02-22T21:36:39.994Z,14.37
2019-02-22T21:41:32.864Z,16.23
2019-02-22T21:46:25.728Z,17.33
2019-02-22T21:51:18.610Z,14.00
2019-02-22T21:56:11.464Z,16.43
2019-02-22T22:01:04.584Z,15.57
2019-02-22T22:05:57.456Z,17.60
2019-02-22T22:10:50.343Z,15.97
2019-02-22T22:15:43.235Z,16.47
2019-02-22T22:20:36.103Z,17.10
2019-02-22T22:25:30.884Z,15.23
2019-02-22T22:30:24.978Z,14.37
2019-02-22T22:35:22.316Z,14.03
2019-02-22T22:40:15.496Z,18.70
2019-02-22T22:45:09.831Z,19.73
2019-02-22T22:50:02.712Z,16.80
2019-02-22T22:54:56.399Z,15.27
2019-02-22T22:59:49.295Z,17.80
2019-02-22T23:04:42.632Z,18.03
2019-02-22T23:09:39.264Z,19.33
2019-02-22T23:14:32.235Z,16.10
2019-02-22T23:19:25.196Z,16.90
2019-02-22T23:24:18.346Z,17.27
2019-02-22T23:29:11.240Z,17.13
2019-02-22T23:34:04.124Z,16.93
2019-02-22T23:38:58.185Z,17.73
2019-02-22T23:43:51.181Z,18.20
2019-02-22T23:48:44.620Z,17.33
2019-02-22T23:53:38.061Z,20.57
2019-02-22T23:58:31.369Z,15.93
